Time;durP1;ratioP1;P1;durP2;ratioP2;P2;SDS_P1;SDS_P2;PMS_P1;PMS_P2;Temp;Humidity;BMP_temperature;BMP_pressure;BME280_temperature;BME280_humidity;BME280_pressure;Samples;Min_cycle;Max_cycle;Signal;HPM_P1;HPM_P2
2023/10/03 00:01:40;;;;;;;10.32;4.82;;;19.30;99.90;;;;;;7394162;19;20122;-86
2023/10/03 00:04:08;;;;;;;7.05;3.97;;;19.30;99.90;;;;;;7392549;19;20142;-85
2023/10/03 00:06:34;;;;;;;8.02;4.95;;;19.30;99.90;;;;;;7390609;19;20270;-85
2023/10/03 00:09:01;;;;;;;10.55;4.78;;;19.40;99.90;;;;;;7393280;19;20157;-86
2023/10/03 00:11:27;;;;;;;10.02;4.55;;;19.50;99.90;;;;;;7391085;19;20172;-86
2023/10/03 00:13:53;;;;;;;9.57;4.55;;;19.60;99.90;;;;;;7393229;19;20127;-84
2023/10/03 00:16:21;;;;;;;11.13;4.95;;;19.70;99.90;;;;;;7394208;19;20138;-86
2023/10/03 00:18:47;;;;;;;10.80;5.03;;;19.60;99.90;;;;;;7396647;19;20142;-86
2023/10/03 00:21:13;;;;;;;11.18;5.60;;;19.70;99.90;;;;;;7393297;19;20484;-84
2023/10/03 00:23:39;;;;;;;11.05;5.47;;;19.50;99.90;;;;;;7393766;19;20130;-85
2023/10/03 00:26:07;;;;;;;10.32;5.30;;;19.40;99.90;;;;;;7392535;19;20234;-85
2023/10/03 00:28:36;;;;;;;13.25;5.53;;;19.30;99.90;;;;;;7391465;19;20131;-87
2023/10/03 00:31:09;;;;;;;9.95;4.93;;;19.20;99.90;;;;;;7392455;19;20153;-87
2023/10/03 00:33:36;;;;;;;11.80;5.70;;;19.20;99.90;;;;;;7393584;19;20150;-87
2023/10/03 00:36:03;;;;;;;12.27;4.72;;;19.20;99.90;;;;;;7393142;19;20154;-86
2023/10/03 00:38:29;;;;;;;16.50;6.28;;;19.20;99.90;;;;;;7394122;19;20154;-86
2023/10/03 00:40:55;;;;;;;8.57;4.53;;;19.10;99.90;;;;;;7391968;19;20294;-86
2023/10/03 00:43:21;;;;;;;10.68;4.15;;;18.90;99.90;;;;;;7392730;19;20150;-86
2023/10/03 00:45:48;;;;;;;9.27;4.63;;;19.00;99.90;;;;;;7391454;19;20487;-86
2023/10/03 00:48:15;;;;;;;8.02;4.20;;;19.00;99.90;;;;;;7393310;19;20146;-85
2023/10/03 00:50:44;;;;;;;9.95;4.95;;;19.00;99.90;;;;;;7393167;19;20168;-86
2023/10/03 00:53:13;;;;;;;9.20;3.97;;;19.00;99.90;;;;;;7393092;19;20147;-86
2023/10/03 00:55:41;;;;;;;8.35;3.92;;;19.10;99.90;;;;;;7389947;19;20163;-86
2023/10/03 01:00:38;;;;;;;7.20;3.60;;;18.90;99.90;;;;;;7394845;19;20166;-86
2023/10/03 01:03:23;;;;;;;8.60;3.45;;;18.90;99.90;;;;;;7391171;19;20241;-86
2023/10/03 01:05:53;;;;;;;10.73;4.80;;;18.90;99.90;;;;;;7389305;19;20241;-85
2023/10/03 01:08:19;;;;;;;7.55;3.63;;;19.00;99.90;;;;;;7392461;19;20165;-85
2023/10/03 01:10:45;;;;;;;7.93;4.22;;;19.00;99.90;;;;;;7390965;19;20131;-87
2023/10/03 01:13:13;;;;;;;9.05;3.95;;;19.00;99.90;;;;;;7391958;19;20156;-86
2023/10/03 01:15:40;;;;;;;9.38;4.32;;;19.00;99.90;;;;;;7387275;19;20221;-84
2023/10/03 01:18:12;;;;;;;6.97;3.67;;;19.10;99.90;;;;;;7390837;19;20135;-86
2023/10/03 01:20:40;;;;;;;8.88;3.67;;;19.20;99.90;;;;;;7391514;19;20563;-86
2023/10/03 01:23:10;;;;;;;7.03;3.58;;;19.30;99.90;;;;;;7391244;19;20170;-85
2023/10/03 01:25:42;;;;;;;10.98;4.47;;;19.20;99.90;;;;;;7393288;19;20766;-86
2023/10/03 01:28:12;;;;;;;7.75;4.50;;;19.20;99.90;;;;;;7391750;19;20591;-86
2023/10/03 01:30:42;;;;;;;7.57;3.75;;;19.10;99.90;;;;;;7391626;19;20844;-85
2023/10/03 01:33:09;;;;;;;9.40;3.10;;;19.10;99.90;;;;;;7392308;19;20561;-87
2023/10/03 01:35:35;;;;;;;8.45;3.90;;;19.10;99.90;;;;;;7387514;19;20559;-86
2023/10/03 01:38:01;;;;;;;9.27;3.95;;;19.20;99.90;;;;;;7388193;19;20135;-86
2023/10/03 01:40:27;;;;;;;8.40;4.43;;;19.30;99.90;;;;;;7395048;19;20155;-85
2023/10/03 01:42:53;;;;;;;8.88;3.88;;;19.30;99.90;;;;;;7396150;19;20147;-85
2023/10/03 01:45:24;;;;;;;9.10;4.30;;;19.30;99.90;;;;;;7395802;19;20146;-85
2023/10/03 01:47:51;;;;;;;8.98;3.67;;;19.20;99.90;;;;;;7395632;19;20166;-86
2023/10/03 01:50:19;;;;;;;8.10;3.67;;;19.10;99.90;;;;;;7396414;19;20166;-84
2023/10/03 01:52:46;;;;;;;8.38;4.13;;;19.10;99.90;;;;;;7392965;19;20134;-85
2023/10/03 01:55:14;;;;;;;8.68;3.92;;;19.20;99.90;;;;;;7396540;19;20154;-85
2023/10/03 01:57:41;;;;;;;10.02;4.72;;;19.20;99.90;;;;;;7396480;19;20131;-86
2023/10/03 02:02:45;;;;;;;9.63;4.50;;;19.20;99.90;;;;;;7397462;19;20146;-86
2023/10/03 02:05:12;;;;;;;10.50;4.47;;;19.20;99.90;;;;;;7395927;19;20852;-86
2023/10/03 02:07:39;;;;;;;8.68;4.22;;;19.00;99.90;;;;;;7395625;19;20614;-86
2023/10/03 02:10:05;;;;;;;9.35;3.85;;;18.80;99.90;;;;;;7396373;19;20146;-86
2023/10/03 02:12:31;;;;;;;9.80;4.25;;;18.90;99.90;;;;;;7399121;19;20458;-85
2023/10/03 02:14:57;;;;;;;10.00;4.65;;;18.80;99.90;;;;;;7393233;19;20149;-85
2023/10/03 02:17:24;;;;;;;10.15;4.78;;;18.60;99.90;;;;;;7396066;19;20127;-84
2023/10/03 02:19:49;;;;;;;8.52;4.47;;;18.60;99.90;;;;;;7394759;19;20539;-85
2023/10/03 02:22:18;;;;;;;12.23;4.93;;;18.50;99.90;;;;;;7396106;19;20147;-85
2023/10/03 02:24:44;;;;;;;10.68;4.50;;;18.50;99.90;;;;;;7395631;19;20150;-84
2023/10/03 02:27:11;;;;;;;10.27;4.60;;;18.50;99.90;;;;;;7395907;19;20461;-87
2023/10/03 02:29:38;;;;;;;10.18;4.72;;;18.50;99.90;;;;;;7392894;19;20127;-87
2023/10/03 02:32:05;;;;;;;9.63;4.53;;;18.50;99.90;;;;;;7396507;19;20206;-88
2023/10/03 02:34:33;;;;;;;11.45;4.97;;;18.40;99.90;;;;;;7394197;19;20155;-87
2023/10/03 02:36:59;;;;;;;8.02;3.90;;;18.30;99.90;;;;;;7396545;19;20715;-86
2023/10/03 02:39:33;;;;;;;10.30;5.13;;;18.30;99.90;;;;;;7397312;19;20147;-86
2023/10/03 02:42:00;;;;;;;8.50;4.10;;;18.20;99.90;;;;;;7397723;19;20145;-87
2023/10/03 02:44:27;;;;;;;8.55;4.80;;;18.10;99.90;;;;;;7397257;19;20429;-87
2023/10/03 02:46:52;;;;;;;8.23;4.05;;;18.10;99.90;;;;;;7396766;19;20153;-87
2023/10/03 02:49:18;;;;;;;10.77;4.72;;;18.00;99.90;;;;;;7394720;19;20130;-87
2023/10/03 02:51:45;;;;;;;12.07;4.18;;;18.00;99.90;;;;;;7395634;19;20138;-86
2023/10/03 02:54:10;;;;;;;9.25;4.57;;;18.00;99.90;;;;;;7394009;19;20142;-86
2023/10/03 02:56:36;;;;;;;8.45;4.40;;;17.90;99.90;;;;;;7395634;19;20157;-86
2023/10/03 02:59:06;;;;;;;8.15;4.43;;;18.00;99.90;;;;;;7396028;19;20143;-87
2023/10/03 03:01:35;;;;;;;7.85;3.95;;;18.00;99.90;;;;;;7396350;19;20952;-87
2023/10/03 03:04:04;;;;;;;15.55;5.35;;;18.00;99.90;;;;;;7392912;19;20157;-88
2023/10/03 03:06:31;;;;;;;10.18;4.40;;;17.90;99.90;;;;;;7394091;19;20482;-87
2023/10/03 03:08:57;;;;;;;10.23;5.05;;;18.30;99.90;;;;;;7395755;19;20884;-86
2023/10/03 03:11:23;;;;;;;9.70;4.88;;;17.90;99.90;;;;;;7394291;19;20138;-86
2023/10/03 03:13:49;;;;;;;8.32;3.97;;;18.00;99.90;;;;;;7394665;19;20135;-87
2023/10/03 03:16:15;;;;;;;12.45;4.97;;;18.00;99.90;;;;;;7395533;19;20139;-86
2023/10/03 03:18:41;;;;;;;9.27;4.03;;;18.00;99.90;;;;;;7394007;19;20217;-87
2023/10/03 03:21:13;;;;;;;7.50;4.45;;;18.10;99.90;;;;;;7395717;19;20139;-86
2023/10/03 03:23:42;;;;;;;11.77;4.90;;;18.10;99.90;;;;;;7397049;19;20209;-87
2023/10/03 03:28:42;;;;;;;9.75;4.50;;;18.20;99.90;;;;;;7394465;19;20134;-86
2023/10/03 03:34:03;;;;;;;8.63;3.88;;;18.20;99.90;;;;;;7394086;19;20162;-85
2023/10/03 03:36:30;;;;;;;9.25;4.22;;;18.10;99.90;;;;;;7395063;19;20161;-86
2023/10/03 03:38:58;;;;;;;9.43;5.03;;;18.00;99.90;;;;;;7395238;19;20157;-87
2023/10/03 03:41:24;;;;;;;10.07;4.97;;;17.90;99.90;;;;;;7393453;19;20142;-86
2023/10/03 03:43:50;;;;;;;9.65;4.70;;;17.90;99.90;;;;;;7394932;19;20146;-87
2023/10/03 03:46:19;;;;;;;8.55;4.47;;;17.90;99.90;;;;;;7394921;19;20169;-87
2023/10/03 03:48:46;;;;;;;11.00;3.95;;;17.90;99.90;;;;;;7394777;19;20214;-88
2023/10/03 03:51:14;;;;;;;8.88;4.63;;;17.80;99.90;;;;;;7395527;19;20139;-87
2023/10/03 03:53:43;;;;;;;10.95;4.32;;;17.90;99.90;;;;;;7394331;19;20154;-86
2023/10/03 03:56:12;;;;;;;10.02;4.22;;;17.70;99.90;;;;;;7395387;19;20173;-88
2023/10/03 03:58:40;;;;;;;9.02;4.25;;;17.80;99.90;;;;;;7395436;19;20122;-87
2023/10/03 04:01:28;;;;;;;7.32;3.70;;;17.80;99.90;;;;;;7396578;19;20143;-87
2023/10/03 04:03:54;;;;;;;8.90;4.63;;;17.90;99.90;;;;;;7392766;19;20229;-89
2023/10/03 04:06:20;;;;;;;9.20;4.88;;;17.90;99.90;;;;;;7392672;19;20206;-88
2023/10/03 04:08:46;;;;;;;7.78;3.97;;;17.90;99.90;;;;;;7394871;19;20553;-87
2023/10/03 04:11:13;;;;;;;7.47;4.28;;;17.90;99.90;;;;;;7393977;19;20803;-88
2023/10/03 04:13:49;;;;;;;11.93;4.63;;;17.90;99.90;;;;;;7394016;19;20146;-89
2023/10/03 04:16:17;;;;;;;8.55;4.25;;;17.80;99.90;;;;;;7395099;19;20141;-87
2023/10/03 04:18:44;;;;;;;10.13;4.30;;;17.80;99.90;;;;;;7393520;19;20177;-86
2023/10/03 04:21:13;;;;;;;7.50;4.53;;;17.90;99.90;;;;;;7394123;19;20143;-88
2023/10/03 04:23:39;;;;;;;9.38;3.47;;;17.90;99.90;;;;;;7395634;19;20165;-88
2023/10/03 04:26:07;;;;;;;8.40;4.25;;;17.80;99.90;;;;;;7393948;19;20540;-87
2023/10/03 04:28:33;;;;;;;7.97;3.95;;;17.70;99.90;;;;;;7394798;19;20142;-87
2023/10/03 04:30:59;;;;;;;8.30;3.83;;;17.90;99.90;;;;;;7395921;19;20141;-87
2023/10/03 04:33:25;;;;;;;5.95;3.38;;;18.00;99.90;;;;;;7393205;19;20135;-87
2023/10/03 04:35:51;;;;;;;8.15;3.55;;;18.00;99.90;;;;;;7390067;19;20518;-87
2023/10/03 04:38:19;;;;;;;9.40;4.07;;;18.10;99.90;;;;;;7393575;19;20158;-87
2023/10/03 04:40:47;;;;;;;5.70;3.05;;;18.30;99.90;;;;;;7394348;19;20165;-87
2023/10/03 04:43:14;;;;;;;6.53;3.35;;;18.20;99.90;;;;;;7394419;19;20163;-87
2023/10/03 04:45:41;;;;;;;8.40;3.33;;;18.40;99.90;;;;;;7391639;19;20162;-87
2023/10/03 04:48:08;;;;;;;4.03;1.92;;;18.30;99.90;;;;;;7394845;19;20151;-87
2023/10/03 04:50:39;;;;;;;4.60;2.60;;;18.50;99.90;;;;;;7391969;19;20569;-86
2023/10/03 04:53:11;;;;;;;4.20;2.58;;;18.50;99.90;;;;;;7394191;19;20493;-86
2023/10/03 04:55:36;;;;;;;5.63;2.40;;;18.60;99.90;;;;;;7390431;19;20638;-86
2023/10/03 04:58:02;;;;;;;5.00;2.97;;;18.80;99.90;;;;;;7394524;19;20600;-87
2023/10/03 05:00:30;;;;;;;4.53;2.55;;;19.00;99.90;;;;;;7392609;19;20727;-87
2023/10/03 05:02:56;;;;;;;5.25;3.28;;;19.00;99.90;;;;;;7392662;19;20289;-87
2023/10/03 05:05:24;;;;;;;5.00;2.33;;;19.00;99.90;;;;;;7392136;19;20151;-87
2023/10/03 05:07:52;;;;;;;3.75;2.15;;;19.00;99.90;;;;;;7394688;19;20151;-88
2023/10/03 05:10:23;;;;;;;3.97;1.65;;;19.00;99.90;;;;;;7393713;19;20167;-86
2023/10/03 05:12:51;;;;;;;3.85;2.15;;;19.20;99.90;;;;;;7391122;19;20254;-86
2023/10/03 05:15:19;;;;;;;2.97;1.90;;;19.20;99.90;;;;;;7388929;19;20158;-86
2023/10/03 05:17:45;;;;;;;3.63;2.30;;;19.20;99.90;;;;;;7392484;19;20768;-87
2023/10/03 05:20:18;;;;;;;4.63;2.00;;;19.30;99.90;;;;;;7392551;19;20147;-86
2023/10/03 05:22:45;;;;;;;3.63;1.95;;;19.40;99.90;;;;;;7393217;19;20139;-87
2023/10/03 05:25:12;;;;;;;4.90;2.50;;;19.40;99.90;;;;;;7391993;19;20178;-86
2023/10/03 05:27:42;;;;;;;3.05;2.15;;;19.50;99.90;;;;;;7391944;19;20600;-86
2023/10/03 05:30:10;;;;;;;6.32;2.40;;;19.50;99.90;;;;;;7393537;19;20299;-86
2023/10/03 05:32:41;;;;;;;4.30;2.30;;;19.60;99.90;;;;;;7392347;19;20230;-87
2023/10/03 05:35:08;;;;;;;5.13;2.10;;;19.60;99.90;;;;;;7389686;19;20162;-86
2023/10/03 05:37:57;;;;;;;5.15;2.58;;;19.60;99.90;;;;;;7391675;19;20599;-86
2023/10/03 05:40:23;;;;;;;3.88;2.00;;;19.60;99.90;;;;;;7388204;19;20193;-87
2023/10/03 05:42:49;;;;;;;2.80;1.80;;;19.50;99.90;;;;;;7391101;19;20587;-87
2023/10/03 05:45:17;;;;;;;3.50;2.03;;;19.40;99.90;;;;;;7389702;19;20134;-85
2023/10/03 05:47:45;;;;;;;3.35;2.15;;;19.40;99.90;;;;;;7390954;19;20151;-86
2023/10/03 05:50:22;;;;;;;5.45;2.35;;;19.30;99.90;;;;;;7390054;19;20154;-86
2023/10/03 05:52:48;;;;;;;5.20;2.20;;;19.40;99.90;;;;;;7392522;19;20142;-86
2023/10/03 05:55:14;;;;;;;3.38;2.20;;;19.50;99.90;;;;;;7390511;19;20146;-86
2023/10/03 05:57:42;;;;;;;3.97;1.92;;;19.50;99.90;;;;;;7391776;19;20162;-86
2023/10/03 06:00:17;;;;;;;3.25;1.98;;;19.50;99.90;;;;;;7392496;19;20228;-86
2023/10/03 06:02:50;;;;;;;3.35;1.88;;;19.50;99.90;;;;;;7390366;19;20209;-88
2023/10/03 06:05:16;;;;;;;3.63;2.20;;;19.60;99.90;;;;;;7390785;19;20186;-88
2023/10/03 06:07:43;;;;;;;4.07;2.10;;;19.60;99.90;;;;;;7391937;19;20600;-88
2023/10/03 06:10:13;;;;;;;3.63;2.20;;;19.50;99.90;;;;;;7392669;19;20210;-87
2023/10/03 06:12:39;;;;;;;2.90;1.40;;;19.40;99.90;;;;;;7390565;19;20162;-87
2023/10/03 06:15:05;;;;;;;3.58;1.83;;;19.50;99.90;;;;;;7390985;19;20143;-86
2023/10/03 06:17:32;;;;;;;3.75;1.92;;;19.30;99.90;;;;;;7392201;19;20706;-87
2023/10/03 06:19:58;;;;;;;4.78;1.98;;;19.30;99.90;;;;;;7393414;19;20189;-85
2023/10/03 06:22:23;;;;;;;2.45;1.85;;;19.40;99.90;;;;;;7392696;19;20147;-86
2023/10/03 06:24:57;;;;;;;4.20;2.00;;;19.20;99.90;;;;;;7395186;19;20139;-86
2023/10/03 06:27:26;;;;;;;3.75;1.77;;;19.30;99.90;;;;;;7403472;19;20127;-85
2023/10/03 06:29:55;;;;;;;3.80;1.98;;;19.20;99.90;;;;;;7402043;19;20604;-87
2023/10/03 06:32:24;;;;;;;3.38;1.88;;;19.20;99.90;;;;;;7400934;19;20131;-86
2023/10/03 06:34:50;;;;;;;3.83;2.20;;;19.10;99.90;;;;;;7396322;19;20122;-79
2023/10/03 06:37:16;;;;;;;5.20;2.20;;;19.20;99.90;;;;;;7395739;19;20170;-79
2023/10/03 06:39:42;;;;;;;4.20;2.20;;;19.20;99.90;;;;;;7395250;19;20142;-80
2023/10/03 06:42:08;;;;;;;4.50;2.63;;;19.20;99.90;;;;;;7394188;19;20489;-79
2023/10/03 06:44:36;;;;;;;3.28;2.00;;;19.20;99.90;;;;;;7396028;19;20181;-80
2023/10/03 06:47:04;;;;;;;3.58;1.75;;;19.30;99.90;;;;;;7393696;19;20163;-80
2023/10/03 06:49:31;;;;;;;4.15;1.83;;;19.30;99.90;;;;;;7393771;19;20130;-77
2023/10/03 06:52:00;;;;;;;4.80;2.03;;;19.50;99.90;;;;;;7393553;19;20143;-79
2023/10/03 06:54:26;;;;;;;4.53;2.00;;;19.60;99.90;;;;;;7391956;19;20157;-79
2023/10/03 06:56:51;;;;;;;4.88;1.95;;;19.70;99.90;;;;;;7394690;19;20554;-79
2023/10/03 06:59:17;;;;;;;4.03;2.00;;;19.90;99.90;;;;;;7392881;19;20146;-78
2023/10/03 07:01:43;;;;;;;3.42;1.80;;;20.10;99.90;;;;;;7394562;19;20602;-80
2023/10/03 07:04:14;;;;;;;3.38;1.55;;;20.20;99.90;;;;;;7392360;19;20173;-79
2023/10/03 07:06:40;;;;;;;3.05;1.70;;;20.40;99.90;;;;;;7390633;19;20186;-79
2023/10/03 07:09:10;;;;;;;3.90;1.80;;;20.50;99.90;;;;;;7396340;19;20158;-81
2023/10/03 07:11:36;;;;;;;2.28;1.45;;;20.60;99.90;;;;;;7393772;19;20174;-80
2023/10/03 07:14:02;;;;;;;3.25;1.60;;;20.70;99.90;;;;;;7392891;19;20162;-80
2023/10/03 07:16:36;;;;;;;1.88;1.60;;;20.80;99.90;;;;;;7392328;19;20196;-81
2023/10/03 07:19:04;;;;;;;2.67;1.80;;;20.90;99.90;;;;;;7393535;19;20683;-80
2023/10/03 07:21:31;;;;;;;2.63;1.60;;;21.00;99.90;;;;;;7393289;19;20143;-80
2023/10/03 07:23:57;;;;;;;4.25;1.63;;;21.10;99.90;;;;;;7393691;19;20143;-77
2023/10/03 07:26:23;;;;;;;3.53;2.28;;;21.10;99.90;;;;;;7393145;19;20158;-81
2023/10/03 07:28:49;;;;;;;2.65;1.73;;;21.10;99.90;;;;;;7393498;19;20139;-82
2023/10/03 07:31:14;;;;;;;5.20;2.75;;;21.20;99.90;;;;;;7394657;19;20170;-81
2023/10/03 07:33:44;;;;;;;2.47;2.13;;;21.20;99.90;;;;;;7393864;19;20144;-79
2023/10/03 07:36:17;;;;;;;5.18;3.00;;;21.20;99.90;;;;;;7391324;19;20479;-81
2023/10/03 07:38:42;;;;;;;3.38;2.08;;;21.30;99.90;;;;;;7393227;19;20138;-80
2023/10/03 07:41:10;;;;;;;4.78;1.80;;;21.30;99.90;;;;;;7390653;19;20127;-80
2023/10/03 07:43:36;;;;;;;3.65;2.47;;;21.20;99.90;;;;;;7393954;19;20146;-79
2023/10/03 07:46:03;;;;;;;4.50;2.28;;;21.30;99.90;;;;;;7392986;19;20150;-78
2023/10/03 07:48:29;;;;;;;5.07;2.25;;;21.30;99.90;;;;;;7391488;19;20139;-77
2023/10/03 07:50:55;;;;;;;3.97;1.70;;;21.40;99.90;;;;;;7392227;19;20141;-79
2023/10/03 07:53:21;;;;;;;3.03;1.92;;;21.30;99.90;;;;;;7392920;19;20478;-79
2023/10/03 07:55:47;;;;;;;3.78;1.83;;;21.40;99.90;;;;;;7390364;19;20210;-80
2023/10/03 07:58:19;;;;;;;2.42;1.50;;;21.50;99.90;;;;;;7393391;19;20131;-79
2023/10/03 08:00:47;;;;;;;2.28;1.75;;;21.60;99.90;;;;;;7394551;19;20139;-80
2023/10/03 08:03:13;;;;;;;3.22;1.73;;;21.70;99.90;;;;;;7391886;19;20134;-79
2023/10/03 08:05:39;;;;;;;3.58;1.90;;;21.80;99.90;;;;;;7388683;19;20495;-80
2023/10/03 08:08:08;;;;;;;1.70;1.30;;;21.90;99.90;;;;;;7392367;19;20222;-80
2023/10/03 08:10:34;;;;;;;3.35;1.60;;;22.00;99.90;;;;;;7392001;19;20146;-82
2023/10/03 08:13:02;;;;;;;3.90;1.30;;;22.10;99.90;;;;;;7392240;19;20158;-81
2023/10/03 08:15:33;;;;;;;2.30;1.33;;;22.20;99.90;;;;;;7390476;19;20150;-81
2023/10/03 08:18:00;;;;;;;2.60;1.40;;;22.20;99.90;;;;;;7393041;19;20143;-80
2023/10/03 08:20:27;;;;;;;2.20;1.33;;;22.30;99.90;;;;;;7393135;19;20165;-81
2023/10/03 08:22:53;;;;;;;2.47;1.63;;;22.50;99.90;;;;;;7391963;19;20166;-84
2023/10/03 08:25:21;;;;;;;2.40;1.45;;;22.70;99.90;;;;;;7394118;19;20166;-80
2023/10/03 08:27:52;;;;;;;3.42;1.35;;;22.90;99.90;;;;;;7393231;19;20707;-81
2023/10/03 08:30:29;;;;;;;5.18;1.58;;;23.10;99.90;;;;;;7393526;19;20131;-80
2023/10/03 08:32:56;;;;;;;2.33;1.30;;;23.30;99.90;;;;;;7394808;19;20148;-80
2023/10/03 08:35:34;;;;;;;1.48;1.38;;;23.40;99.90;;;;;;7393193;19;20138;-80
2023/10/03 08:38:04;;;;;;;1.48;1.10;;;23.50;99.90;;;;;;7393289;19;20142;-81
2023/10/03 08:40:35;;;;;;;1.60;1.17;;;23.80;99.90;;;;;;7393842;19;20212;-80
2023/10/03 08:43:05;;;;;;;1.98;1.50;;;23.90;99.90;;;;;;7392352;19;20146;-81
2023/10/03 08:45:35;;;;;;;1.70;1.13;;;23.90;99.90;;;;;;7393824;19;20138;-80
2023/10/03 08:48:05;;;;;;;2.47;1.45;;;23.80;99.90;;;;;;7392664;19;20154;-82
2023/10/03 08:50:39;;;;;;;2.47;1.55;;;24.00;99.90;;;;;;7392390;19;20138;-82
2023/10/03 08:53:26;;;;;;;2.22;1.45;;;24.20;99.90;;;;;;7392439;19;20153;-82
2023/10/03 08:55:59;;;;;;;2.53;1.30;;;24.40;99.90;;;;;;7390036;19;20158;-84
2023/10/03 08:58:26;;;;;;;3.47;1.40;;;24.40;99.90;;;;;;7396003;19;20164;-85
2023/10/03 09:00:59;;;;;;;4.00;1.75;;;24.60;99.90;;;;;;7395813;19;20163;-86
2023/10/03 09:03:29;;;;;;;1.63;1.27;;;24.70;99.90;;;;;;7393983;19;20154;-85
2023/10/03 09:05:58;;;;;;;1.45;1.02;;;24.90;99.90;;;;;;7390921;19;20154;-84
2023/10/03 09:08:27;;;;;;;2.08;1.30;;;25.00;99.90;;;;;;7394265;19;20138;-85
2023/10/03 09:10:55;;;;;;;2.50;1.40;;;25.00;99.90;;;;;;7390668;19;20164;-87
2023/10/03 09:13:25;;;;;;;2.97;1.55;;;25.00;99.90;;;;;;7392770;19;20457;-85
2023/10/03 09:16:14;;;;;;;2.42;1.50;;;25.10;99.90;;;;;;7388119;19;20134;-84
2023/10/03 09:18:41;;;;;;;1.77;1.27;;;25.30;99.90;;;;;;7390050;19;20157;-82
2023/10/03 09:21:23;;;;;;;2.15;1.35;;;25.40;99.90;;;;;;7391513;19;20595;-86
2023/10/03 09:24:01;;;;;;;1.80;1.42;;;25.50;99.90;;;;;;7389689;19;20150;-84
2023/10/03 09:26:47;;;;;;;2.50;1.55;;;25.50;99.90;;;;;;7390603;19;20897;-82
2023/10/03 09:29:29;;;;;;;1.63;1.30;;;25.40;99.90;;;;;;7389357;19;20143;-83
2023/10/03 09:31:57;;;;;;;1.77;1.23;;;25.30;99.90;;;;;;7389732;19;20135;-82
2023/10/03 09:34:32;;;;;;;2.17;1.35;;;25.20;99.90;;;;;;7386835;19;20190;-81
2023/10/03 09:37:02;;;;;;;2.22;1.30;;;25.30;99.90;;;;;;7388207;19;20490;-84
2023/10/03 09:39:39;;;;;;;2.22;1.20;;;25.40;99.90;;;;;;7388715;19;20653;-86
2023/10/03 09:42:15;;;;;;;1.63;1.23;;;25.60;99.90;;;;;;7392547;19;20227;-81
2023/10/03 09:44:48;;;;;;;3.67;1.83;;;25.70;99.90;;;;;;7389502;19;20173;-84
2023/10/03 09:47:27;;;;;;;2.38;1.30;;;25.90;99.90;;;;;;7390966;19;20138;-83
2023/10/03 09:50:03;;;;;;;1.88;1.20;;;26.00;99.90;;;;;;7392929;19;20263;-81
2023/10/03 09:52:30;;;;;;;1.70;1.40;;;26.00;99.90;;;;;;7391177;19;20551;-84
2023/10/03 09:55:00;;;;;;;2.60;1.80;;;25.90;99.90;;;;;;7387682;19;20153;-84
2023/10/03 09:57:32;;;;;;;1.45;1.30;;;25.90;99.90;;;;;;7390621;19;20552;-81
2023/10/03 10:00:00;;;;;;;1.83;1.27;;;26.00;99.90;;;;;;7390733;19;20147;-81
2023/10/03 10:02:35;;;;;;;1.48;1.30;;;26.20;99.90;;;;;;7396461;19;20150;-84
2023/10/03 10:05:19;;;;;;;2.17;1.50;;;26.50;99.90;;;;;;7395600;19;20205;-83
2023/10/03 10:08:17;;;;;;;3.00;1.48;;;26.50;99.90;;;;;;7397425;19;20127;-84
2023/10/03 10:11:01;;;;;;;2.90;1.65;;;26.40;99.90;;;;;;7397966;19;20134;-81
2023/10/03 10:13:34;;;;;;;2.85;1.83;;;26.30;99.90;;;;;;7397501;19;20164;-84
2023/10/03 10:16:22;;;;;;;1.42;1.30;;;26.30;99.90;;;;;;7394577;19;20655;-83
2023/10/03 10:18:51;;;;;;;3.00;1.90;;;26.10;99.90;;;;;;7395389;19;20142;-77
2023/10/03 10:21:50;;;;;;;2.13;1.33;;;26.00;99.90;;;;;;7398718;19;20586;-81
2023/10/03 10:24:16;;;;;;;4.45;1.40;;;26.00;99.90;;;;;;7393457;19;20587;-83
2023/10/03 10:26:48;;;;;;;3.00;1.30;;;26.00;99.90;;;;;;7397038;19;20146;-82
2023/10/03 10:29:20;;;;;;;1.85;1.25;;;26.10;99.90;;;;;;7396652;19;20131;-83
2023/10/03 10:31:59;;;;;;;1.30;1.20;;;26.10;99.90;;;;;;7391379;19;20605;-78
2023/10/03 10:34:45;;;;;;;1.60;1.13;;;26.10;99.90;;;;;;7393316;19;20131;-78
2023/10/03 10:37:18;;;;;;;1.70;1.30;;;26.00;99.90;;;;;;7393504;19;20131;-86
2023/10/03 10:39:56;;;;;;;1.38;1.05;;;26.00;99.90;;;;;;7394859;19;20134;-85
2023/10/03 10:42:26;;;;;;;2.40;1.10;;;26.00;99.90;;;;;;7393371;19;20150;-81
2023/10/03 10:45:13;;;;;;;2.67;1.48;;;25.90;99.90;;;;;;7393076;19;20151;-83
2023/10/03 10:47:49;;;;;;;1.85;1.42;;;25.90;99.90;;;;;;7393836;19;20158;-81
2023/10/03 10:50:17;;;;;;;1.42;1.30;;;26.00;99.90;;;;;;7392649;19;20472;-81
2023/10/03 10:52:56;;;;;;;1.13;1.02;;;26.00;99.90;;;;;;7393391;19;20137;-81
2023/10/03 10:55:26;;;;;;;1.88;1.23;;;26.10;99.90;;;;;;7391756;19;20595;-83
2023/10/03 10:58:22;;;;;;;1.73;1.30;;;26.30;99.90;;;;;;7392885;19;20130;-84
2023/10/03 11:00:57;;;;;;;1.67;1.17;;;26.50;99.90;;;;;;7393764;19;20154;-84
2023/10/03 11:03:22;;;;;;;2.00;1.65;;;26.50;99.90;;;;;;7392248;19;20164;-82
2023/10/03 11:05:55;;;;;;;1.95;1.17;;;26.70;99.90;;;;;;7392120;19;20611;-80
2023/10/03 11:08:21;;;;;;;2.45;1.35;;;26.90;99.90;;;;;;7393918;19;20135;-81
2023/10/03 11:10:48;;;;;;;2.13;1.67;;;27.30;99.90;;;;;;7392274;19;20163;-80
2023/10/03 11:13:15;;;;;;;1.35;1.08;;;27.30;99.90;;;;;;7393602;19;20135;-79
2023/10/03 11:15:48;;;;;;;3.17;1.58;;;27.30;99.90;;;;;;7390231;19;20170;-80
2023/10/03 11:18:15;;;;;;;2.03;1.40;;;27.30;99.90;;;;;;7393194;19;20218;-80
2023/10/03 11:20:41;;;;;;;2.03;1.42;;;27.30;99.90;;;;;;7392903;19;20607;-82
2023/10/03 11:23:18;;;;;;;2.40;1.50;;;27.20;99.90;;;;;;7392866;19;20153;-81
2023/10/03 11:25:57;;;;;;;2.15;1.55;;;27.10;99.90;;;;;;7392755;19;20266;-80
2023/10/03 11:28:32;;;;;;;1.70;1.42;;;26.90;99.90;;;;;;7394217;19;20165;-81
2023/10/03 11:31:05;;;;;;;2.38;1.30;;;27.00;99.90;;;;;;7392048;19;20158;-81
2023/10/03 11:33:45;;;;;;;2.15;1.60;;;26.80;99.90;;;;;;7393030;19;20139;-82
2023/10/03 11:36:12;;;;;;;2.28;1.70;;;26.80;99.90;;;;;;7391969;19;20150;-81
2023/10/03 11:38:45;;;;;;;1.58;1.30;;;26.70;99.90;;;;;;7392013;19;20212;-80
2023/10/03 11:41:11;;;;;;;1.77;1.27;;;26.60;99.90;;;;;;7391639;19;20150;-82
2023/10/03 11:43:46;;;;;;;2.53;1.83;;;26.60;99.90;;;;;;7393949;19;20171;-80
2023/10/03 11:46:13;;;;;;;1.90;1.45;;;26.60;99.90;;;;;;7388511;19;20137;-81
2023/10/03 11:48:38;;;;;;;2.10;1.48;;;26.60;99.90;;;;;;7393091;19;20643;-79
2023/10/03 11:51:07;;;;;;;1.23;1.13;;;26.60;99.90;;;;;;7391998;19;20155;-80
2023/10/03 11:53:33;;;;;;;2.53;1.80;;;26.50;99.90;;;;;;7390946;19;20139;-81
2023/10/03 11:55:58;;;;;;;1.70;1.40;;;26.50;99.90;;;;;;7389816;19;20165;-81
2023/10/03 11:58:26;;;;;;;2.25;1.63;;;26.40;99.90;;;;;;7393201;19;20161;-82
2023/10/03 12:00:53;;;;;;;1.83;1.38;;;26.40;99.90;;;;;;7391980;19;20131;-81
2023/10/03 12:03:20;;;;;;;1.80;1.52;;;26.40;99.90;;;;;;7393777;19;20155;-81
2023/10/03 12:05:46;;;;;;;1.50;1.33;;;26.30;99.90;;;;;;7391435;19;20166;-79
2023/10/03 12:08:13;;;;;;;2.00;1.50;;;26.20;99.90;;;;;;7392269;19;20142;-80
2023/10/03 12:10:40;;;;;;;2.05;1.52;;;26.20;99.90;;;;;;7393162;19;20213;-81
2023/10/03 12:13:10;;;;;;;1.90;1.52;;;26.30;99.90;;;;;;7393687;19;20163;-79
2023/10/03 12:15:42;;;;;;;2.33;1.50;;;26.30;99.90;;;;;;7390177;19;20158;-81
2023/10/03 12:18:08;;;;;;;2.70;1.83;;;26.40;99.90;;;;;;7392748;19;20154;-81
2023/10/03 12:20:36;;;;;;;2.20;1.58;;;26.30;99.90;;;;;;7393635;19;20142;-82
2023/10/03 12:23:04;;;;;;;2.65;1.80;;;26.30;99.90;;;;;;7391346;19;20174;-83
2023/10/03 12:25:31;;;;;;;2.03;1.80;;;26.20;99.90;;;;;;7393230;19;20142;-83
2023/10/03 12:27:59;;;;;;;3.33;1.77;;;26.20;99.90;;;;;;7393527;19;20840;-82
2023/10/03 12:30:33;;;;;;;2.92;1.67;;;26.10;99.90;;;;;;7393182;19;20142;-80
2023/10/03 12:32:58;;;;;;;1.48;1.27;;;26.10;99.90;;;;;;7393446;19;20163;-85
2023/10/03 12:35:24;;;;;;;2.17;1.60;;;26.10;99.90;;;;;;7392025;19;20158;-82
2023/10/03 12:37:51;;;;;;;2.05;1.73;;;26.00;99.90;;;;;;7393190;19;20194;-83
2023/10/03 12:40:18;;;;;;;2.08;1.40;;;26.00;99.90;;;;;;7392486;19;20139;-83
2023/10/03 12:42:51;;;;;;;1.90;1.33;;;25.90;99.90;;;;;;7393301;19;20135;-81
2023/10/03 12:45:20;;;;;;;2.30;1.60;;;25.90;99.90;;;;;;7391938;19;20486;-82
2023/10/03 12:47:54;;;;;;;1.77;1.40;;;26.00;99.90;;;;;;7393062;19;20139;-83
2023/10/03 12:50:24;;;;;;;1.95;1.50;;;26.00;99.90;;;;;;7394146;19;20186;-84
2023/10/03 12:52:51;;;;;;;1.95;1.65;;;26.10;99.90;;;;;;7391528;19;20161;-82
2023/10/03 12:55:20;;;;;;;2.05;1.60;;;26.00;99.90;;;;;;7388741;19;20139;-81
2023/10/03 12:57:51;;;;;;;1.73;1.23;;;26.00;99.90;;;;;;7392560;19;20161;-82
2023/10/03 13:00:21;;;;;;;2.35;1.60;;;26.00;99.90;;;;;;7393376;19;20496;-81
2023/10/03 13:02:48;;;;;;;1.92;1.73;;;25.90;99.90;;;;;;7392289;19;20169;-81
2023/10/03 13:05:15;;;;;;;2.20;1.70;;;25.80;99.90;;;;;;7390828;19;20957;-83
2023/10/03 13:07:48;;;;;;;2.03;1.40;;;25.80;99.90;;;;;;7395201;19;20713;-82